Time;durP1;ratioP1;P1;durP2;ratioP2;P2;SDS_P1;SDS_P2;PMS_P1;PMS_P2;Temp;Humidity;BMP_temperature;BMP_pressure;BME280_temperature;BME280_humidity;BME280_pressure;Samples;Min_cycle;Max_cycle;Signal;HPM_P1;HPM_P2
2023/01/04 00:00:06;;;;;;;;;;;;;;;14.88;43.57;100422.00;4475470;32;34066;-94
2023/01/04 00:02:34;;;;;;;;;;;;;;;14.99;43.43;100433.50;4477881;32;35493;-94
2023/01/04 00:05:01;;;;;;;;;;;;;;;15.19;42.86;100430.28;4461018;32;34070;-84
2023/01/04 00:07:29;;;;;;;;;;;;;;;14.87;43.12;100435.06;4455630;32;33494;-96
2023/01/04 00:09:56;;;;;;;;;;;;;;;12.86;47.48;100444.06;4482101;31;33960;-82
2023/01/04 00:12:23;;;;;;;;;;;;;;;14.03;44.99;100442.28;4483152;32;34327;-96
2023/01/04 00:14:50;;;;;;;;;;;;;;;14.04;45.26;100441.41;4495737;32;34476;-93
2023/01/04 00:17:18;;;;;;;;;;;;;;;14.19;44.69;100441.69;4494191;32;32906;-83
2023/01/04 00:19:45;;;;;;;;;;;;;;;14.39;44.13;100436.81;4457830;32;33099;-83
2023/01/04 00:22:12;;;;;;;;;;;;;;;13.95;45.17;100436.91;4482752;32;34796;-88
2023/01/04 00:24:40;;;;;;;;;;;;;;;14.14;44.78;100445.09;4476981;32;34071;-92
2023/01/04 00:27:07;;;;;;;;;;;;;;;14.20;44.68;100433.00;4493422;32;32816;-81
2023/01/04 00:29:34;;;;;;;;;;;;;;;14.08;44.72;100438.88;4491455;31;33850;-81
2023/01/04 00:32:02;;;;;;;;;;;;;;;14.03;44.67;100430.09;4471393;32;33937;-82
2023/01/04 00:34:29;;;;;;;;;;;;;;;14.16;44.26;100430.31;4486529;32;33506;-95
2023/01/04 00:36:56;;;;;;;;;;;;;;;13.74;44.91;100426.03;4470090;32;33372;-94
2023/01/04 00:39:24;;;;;;;;;;;;;;;13.35;45.75;100429.59;4483710;32;34451;-82
2023/01/04 00:41:52;;;;;;;;;;;;;;;13.66;44.43;100417.19;4486236;32;35005;-84
2023/01/04 00:44:28;;;;;;;;;;;;;;;13.26;45.28;100425.06;4465395;32;33291;-94
2023/01/04 00:46:56;;;;;;;;;;;;;;;13.10;45.85;100429.00;4478205;32;33123;-94
2023/01/04 00:49:23;;;;;;;;;;;;;;;13.29;45.45;100425.09;4479076;32;33618;-95
2023/01/04 00:51:51;;;;;;;;;;;;;;;13.66;44.26;100422.41;4483941;32;34420;-87
2023/01/04 00:54:18;;;;;;;;;;;;;;;13.58;44.37;100427.47;4459418;32;33703;-86
2023/01/04 00:56:46;;;;;;;;;;;;;;;13.75;43.95;100433.00;4460503;32;33668;-82
2023/01/04 00:59:14;;;;;;;;;;;;;;;13.67;43.80;100426.75;4487240;32;34035;-90
2023/01/04 01:01:41;;;;;;;;;;;;;;;13.57;43.97;100437.00;4488089;32;34106;-96
2023/01/04 01:04:09;;;;;;;;;;;;;;;13.58;43.69;100440.50;4473570;32;33887;-83
2023/01/04 01:06:37;;;;;;;;;;;;;;;14.05;43.13;100445.75;4472997;32;34446;-96
2023/01/04 01:09:04;;;;;;;;;;;;;;;13.86;43.27;100449.75;4468777;32;33595;-82
2023/01/04 01:11:32;;;;;;;;;;;;;;;14.24;42.19;100450.47;4459632;32;32895;-82
2023/01/04 01:13:59;;;;;;;;;;;;;;;14.10;41.96;100447.63;4456564;32;33921;-96
2023/01/04 01:16:26;;;;;;;;;;;;;;;13.99;42.08;100445.66;4470487;32;33506;-96
2023/01/04 01:19:14;;;;;;;;;;;;;;;13.80;42.46;100444.44;4469455;32;35352;-96
2023/01/04 01:21:41;;;;;;;;;;;;;;;13.93;41.87;100446.41;4448153;32;34953;-86
2023/01/04 01:24:18;;;;;;;;;;;;;;;13.79;42.07;100442.69;4471481;32;34169;-82
2023/01/04 01:26:45;;;;;;;;;;;;;;;13.80;42.24;100441.81;4470959;32;33500;-96
2023/01/04 01:29:12;;;;;;;;;;;;;;;13.44;42.51;100441.91;4471607;32;33768;-96
2023/01/04 01:31:40;;;;;;;;;;;;;;;13.21;43.43;100447.47;4473889;32;34439;-96
2023/01/04 01:34:07;;;;;;;;;;;;;;;12.84;44.51;100450.94;4478155;32;34116;-96
2023/01/04 01:36:34;;;;;;;;;;;;;;;12.25;45.61;100450.31;4481374;32;32560;-94
2023/01/04 01:39:02;;;;;;;;;;;;;;;11.96;47.24;100444.31;4473557;32;34992;-96
2023/01/04 01:41:30;;;;;;;;;;;;;;;11.34;48.93;100450.31;4494410;32;34168;-89
2023/01/04 01:44:01;;;;;;;;;;;;;;;12.22;46.37;100450.22;4484320;32;35037;-82
2023/01/04 01:46:32;;;;;;;;;;;;;;;12.46;45.44;100442.19;4471158;32;33393;-93
2023/01/04 01:49:00;;;;;;;;;;;;;;;12.58;44.90;100439.91;4477610;32;33965;-95
2023/01/04 01:51:27;;;;;;;;;;;;;;;13.07;43.67;100436.75;4483795;32;35026;-95
2023/01/04 01:53:59;;;;;;;;;;;;;;;12.36;45.64;100441.94;4487358;32;34948;-94
2023/01/04 01:56:26;;;;;;;;;;;;;;;12.18;45.99;100444.06;4475608;32;34195;-96
2023/01/04 01:58:53;;;;;;;;;;;;;;;12.42;45.30;100436.00;4492186;32;34145;-89
2023/01/04 02:01:20;;;;;;;;;;;;;;;12.38;44.98;100435.06;4492309;32;34522;-84
2023/01/04 02:03:48;;;;;;;;;;;;;;;12.74;44.15;100433.34;4477487;32;33951;-96
2023/01/04 02:06:17;;;;;;;;;;;;;;;12.73;43.77;100428.97;4492970;32;33176;-84
2023/01/04 02:08:44;;;;;;;;;;;;;;;12.43;44.58;100437.81;4479249;32;35204;-82
2023/01/04 02:11:11;;;;;;;;;;;;;;;12.44;44.56;100444.75;4492295;32;34290;-93
2023/01/04 02:16:29;;;;;;;;;;;;;;;12.83;43.10;100438.78;4474838;32;33917;-94
2023/01/04 02:19:17;;;;;;;;;;;;;;;12.68;43.66;100443.59;4457821;32;33603;-94
2023/01/04 02:21:44;;;;;;;;;;;;;;;12.35;44.07;100445.41;4484363;32;34491;-88
2023/01/04 02:24:31;;;;;;;;;;;;;;;12.64;43.48;100443.53;4484355;32;33885;-92
2023/01/04 02:27:13;;;;;;;;;;;;;;;12.49;43.38;100437.94;4483553;32;33031;-95
2023/01/04 02:29:43;;;;;;;;;;;;;;;12.68;43.06;100444.47;4484190;31;33889;-95
2023/01/04 02:32:32;;;;;;;;;;;;;;;12.84;42.53;100440.53;4483864;32;35296;-95
2023/01/04 02:35:20;;;;;;;;;;;;;;;12.61;42.67;100435.66;4451534;32;33220;-90
2023/01/04 02:38:08;;;;;;;;;;;;;;;12.56;42.81;100429.44;4455957;32;33395;-84
2023/01/04 02:40:41;;;;;;;;;;;;;;;12.06;43.70;100429.03;4483746;32;34423;-92
2023/01/04 02:46:09;;;;;;;;;;;;;;;12.65;42.30;100437.50;4473745;32;33526;-82
2023/01/04 02:51:30;;;;;;;;;;;;;;;12.39;42.76;100441.16;4469918;32;35562;-88
2023/01/04 02:53:58;;;;;;;;;;;;;;;12.45;42.41;100433.50;4480586;32;34433;-96
2023/01/04 02:56:34;;;;;;;;;;;;;;;12.31;42.66;100435.75;4475762;32;33717;-93
2023/01/04 02:59:14;;;;;;;;;;;;;;;12.34;42.64;100437.53;4479453;32;33781;-82
2023/01/04 03:07:45;;;;;;;;;;;;;;;12.18;42.92;100437.16;4472585;32;33794;-81
2023/01/04 03:10:12;;;;;;;;;;;;;;;12.12;43.03;100436.09;4477295;32;33529;-82
2023/01/04 03:12:42;;;;;;;;;;;;;;;12.14;42.97;100434.44;4487963;32;34020;-95
2023/01/04 03:15:21;;;;;;;;;;;;;;;12.35;42.70;100440.19;4479031;32;35139;-81
2023/01/04 03:17:50;;;;;;;;;;;;;;;12.10;43.19;100427.37;4495915;32;34681;-88
2023/01/04 03:20:17;;;;;;;;;;;;;;;12.20;43.08;100433.69;4479807;32;34068;-93
2023/01/04 03:36:45;;;;;;;;;;;;;;;12.04;42.99;100427.22;4481268;32;33922;-88
2023/01/04 03:51:01;;;;;;;;;;;;;;;11.73;43.64;100430.66;4466354;32;31823;-91
2023/01/04 03:53:29;;;;;;;;;;;;;;;11.21;44.34;100442.97;4474408;32;33903;-85
2023/01/04 03:55:56;;;;;;;;;;;;;;;11.73;43.15;100431.53;4467145;32;34303;-88
2023/01/04 03:58:24;;;;;;;;;;;;;;;11.71;42.93;100433.22;4467099;32;35506;-90
2023/01/04 04:00:51;;;;;;;;;;;;;;;11.54;43.45;100432.72;4466406;32;34075;-82
2023/01/04 04:03:19;;;;;;;;;;;;;;;11.86;43.13;100427.63;4468914;32;33432;-81
2023/01/04 04:08:32;;;;;;;;;;;;;;;11.63;43.32;100424.31;4468351;32;34941;-93
2023/01/04 04:13:46;;;;;;;;;;;;;;;11.54;43.48;100416.25;4470996;32;32426;-94
2023/01/04 04:16:15;;;;;;;;;;;;;;;11.72;43.10;100418.50;4466177;32;34366;-82
2023/01/04 04:18:46;;;;;;;;;;;;;;;11.90;42.68;100424.25;4466660;32;35093;-92
2023/01/04 04:21:14;;;;;;;;;;;;;;;11.90;42.62;100424.25;4467399;32;33899;-95
2023/01/04 04:23:41;;;;;;;;;;;;;;;11.40;43.38;100423.63;4474490;32;33105;-84
2023/01/04 04:26:08;;;;;;;;;;;;;;;11.62;42.89;100435.53;4482260;32;35050;-96
2023/01/04 04:28:36;;;;;;;;;;;;;;;11.75;42.58;100431.59;4484008;32;34209;-83
2023/01/04 04:31:03;;;;;;;;;;;;;;;11.39;43.13;100442.66;4479728;32;34184;-83
2023/01/04 04:33:30;;;;;;;;;;;;;;;11.53;42.93;100443.09;4473943;32;33333;-94
2023/01/04 04:35:57;;;;;;;;;;;;;;;11.48;43.13;100449.84;4468408;32;34300;-81
2023/01/04 04:38:25;;;;;;;;;;;;;;;11.55;42.81;100446.59;4467015;32;35241;-92
2023/01/04 04:43:38;;;;;;;;;;;;;;;11.87;42.25;100440.63;4474521;32;32685;-83
2023/01/04 04:46:05;;;;;;;;;;;;;;;11.91;41.96;100439.00;4468481;32;33872;-82
2023/01/04 04:48:32;;;;;;;;;;;;;;;12.02;41.98;100437.59;4470315;32;35124;-94
2023/01/04 04:51:00;;;;;;;;;;;;;;;11.97;42.15;100434.00;4474167;32;34749;-83
2023/01/04 04:53:27;;;;;;;;;;;;;;;11.96;42.09;100442.59;4455301;32;32646;-83
2023/01/04 04:55:54;;;;;;;;;;;;;;;11.72;42.50;100434.97;4477499;32;34882;-92
2023/01/04 04:58:22;;;;;;;;;;;;;;;11.90;42.21;100435.53;4479764;32;34513;-84
2023/01/04 05:00:49;;;;;;;;;;;;;;;12.12;41.50;100430.88;4455992;32;33960;-90
2023/01/04 05:03:16;;;;;;;;;;;;;;;11.87;42.02;100427.66;4471013;32;32581;-91
2023/01/04 05:05:44;;;;;;;;;;;;;;;11.75;42.34;100435.06;4484730;32;35075;-82
2023/01/04 05:08:11;;;;;;;;;;;;;;;11.64;42.61;100433.87;4470635;32;33820;-95
2023/01/04 05:10:38;;;;;;;;;;;;;;;11.54;43.03;100439.63;4471174;32;34842;-94
2023/01/04 05:13:09;;;;;;;;;;;;;;;11.61;43.00;100437.25;4471480;32;33506;-82
2023/01/04 05:15:39;;;;;;;;;;;;;;;11.37;43.12;100437.44;4470665;32;34857;-94
2023/01/04 05:18:07;;;;;;;;;;;;;;;11.81;42.52;100434.34;4470364;32;34143;-86
2023/01/04 05:20:34;;;;;;;;;;;;;;;11.89;42.29;100440.66;4484737;32;33856;-92
2023/01/04 05:23:01;;;;;;;;;;;;;;;11.86;42.10;100438.00;4484172;32;33720;-92
2023/01/04 05:25:29;;;;;;;;;;;;;;;11.95;41.95;100434.78;4470377;32;34466;-93
2023/01/04 05:27:56;;;;;;;;;;;;;;;11.72;42.50;100449.69;4470345;32;35121;-83
2023/01/04 05:33:09;;;;;;;;;;;;;;;11.56;42.83;100458.75;4484226;32;34225;-95
2023/01/04 05:35:36;;;;;;;;;;;;;;;11.65;42.71;100459.00;4484438;32;34599;-95
2023/01/04 05:38:03;;;;;;;;;;;;;;;11.83;42.49;100459.56;4484846;32;33875;-93
2023/01/04 05:40:31;;;;;;;;;;;;;;;11.72;42.86;100467.87;4470561;32;34178;-83
2023/01/04 05:42:58;;;;;;;;;;;;;;;11.71;42.78;100463.53;4471971;32;33402;-92
2023/01/04 05:45:25;;;;;;;;;;;;;;;11.86;42.64;100472.66;4484311;32;35090;-92
2023/01/04 05:47:53;;;;;;;;;;;;;;;11.92;42.38;100458.94;4470047;32;34184;-82
2023/01/04 05:50:21;;;;;;;;;;;;;;;11.78;42.26;100466.34;4469721;32;34167;-88
2023/01/04 05:52:48;;;;;;;;;;;;;;;11.69;42.51;100469.53;4469907;32;34732;-92
2023/01/04 05:55:16;;;;;;;;;;;;;;;11.74;42.70;100464.47;4469951;32;35224;-82
2023/01/04 05:57:43;;;;;;;;;;;;;;;12.06;41.96;100461.94;4470168;32;34240;-91
2023/01/04 06:00:11;;;;;;;;;;;;;;;11.83;42.40;100464.78;4479573;32;33722;-89
2023/01/04 06:02:38;;;;;;;;;;;;;;;11.91;42.31;100462.41;4468865;32;33065;-93
2023/01/04 06:05:06;;;;;;;;;;;;;;;11.88;42.18;100462.31;4483836;32;34196;-83
2023/01/04 06:07:33;;;;;;;;;;;;;;;11.82;42.30;100462.09;4480720;32;34439;-90
2023/01/04 06:10:01;;;;;;;;;;;;;;;11.72;42.60;100466.16;4475871;32;33961;-82
2023/01/04 06:12:29;;;;;;;;;;;;;;;11.93;41.97;100463.31;4468102;32;33219;-92
2023/01/04 06:14:56;;;;;;;;;;;;;;;11.82;42.17;100465.59;4483367;32;35097;-94
2023/01/04 06:17:24;;;;;;;;;;;;;;;11.63;42.51;100466.78;4484177;32;34177;-94
2023/01/04 06:19:52;;;;;;;;;;;;;;;11.50;42.83;100469.84;4482796;32;33918;-92
2023/01/04 06:22:19;;;;;;;;;;;;;;;11.60;42.91;100471.00;4478615;32;33196;-93
2023/01/04 06:24:46;;;;;;;;;;;;;;;11.83;42.23;100477.78;4468279;32;34160;-90
2023/01/04 06:27:14;;;;;;;;;;;;;;;11.87;42.20;100487.41;4469210;32;35143;-95
2023/01/04 06:29:41;;;;;;;;;;;;;;;11.81;42.40;100476.78;4475589;32;32413;-91
2023/01/04 06:32:08;;;;;;;;;;;;;;;11.84;42.56;100481.25;4478029;32;34183;-87
2023/01/04 06:34:35;;;;;;;;;;;;;;;11.77;42.74;100482.75;4475269;32;34247;-89
2023/01/04 06:37:04;;;;;;;;;;;;;;;11.51;43.27;100476.78;4471728;32;34378;-91
2023/01/04 06:39:31;;;;;;;;;;;;;;;11.62;43.14;100482.28;4453250;32;34797;-93
2023/01/04 06:41:59;;;;;;;;;;;;;;;11.60;43.30;100481.37;4463283;32;31570;-94
2023/01/04 06:44:33;;;;;;;;;;;;;;;11.67;43.21;100478.13;4473339;32;34985;-96
2023/01/04 06:47:00;;;;;;;;;;;;;;;11.66;43.19;100479.81;4484466;32;34071;-82
2023/01/04 06:49:27;;;;;;;;;;;;;;;11.76;43.20;100477.50;4484063;32;34947;-89
2023/01/04 06:51:54;;;;;;;;;;;;;;;11.77;43.16;100484.47;4483943;32;34158;-93
2023/01/04 06:54:22;;;;;;;;;;;;;;;11.86;43.15;100484.78;4484154;32;34247;-83
2023/01/04 06:56:49;;;;;;;;;;;;;;;11.96;42.95;100475.50;4483934;32;33849;-87
2023/01/04 06:59:16;;;;;;;;;;;;;;;12.00;42.82;100480.81;4469710;32;35207;-91
2023/01/04 07:01:43;;;;;;;;;;;;;;;12.05;42.48;100471.47;4483700;32;33926;-91
2023/01/04 07:04:11;;;;;;;;;;;;;;;12.01;42.54;100481.69;4483952;32;33786;-92
2023/01/04 07:06:38;;;;;;;;;;;;;;;12.18;42.14;100486.53;4484098;32;34433;-89
2023/01/04 07:09:05;;;;;;;;;;;;;;;11.92;42.45;100485.81;4484184;32;34034;-93
2023/01/04 07:11:33;;;;;;;;;;;;;;;11.80;42.95;100494.94;4469014;32;33429;-84
2023/01/04 07:14:00;;;;;;;;;;;;;;;11.54;43.73;100497.66;4484214;32;34256;-94
2023/01/04 07:16:27;;;;;;;;;;;;;;;11.34;44.05;100511.75;4470641;32;35402;-96
2023/01/04 07:18:55;;;;;;;;;;;;;;;11.60;43.54;100507.38;4484769;32;33635;-96
2023/01/04 07:21:24;;;;;;;;;;;;;;;11.73;43.22;100508.59;4485133;32;32967;-95
2023/01/04 07:23:52;;;;;;;;;;;;;;;11.68;43.21;100513.66;4483126;32;34980;-81
2023/01/04 07:26:20;;;;;;;;;;;;;;;11.87;43.02;100513.41;4485872;32;35410;-81
2023/01/04 07:31:33;;;;;;;;;;;;;;;11.77;43.51;100497.47;4470199;32;33245;-83
2023/01/04 07:34:00;;;;;;;;;;;;;;;11.75;43.50;100494.81;4472519;32;33915;-84
2023/01/04 07:36:27;;;;;;;;;;;;;;;11.76;43.97;100498.31;4488830;32;35797;-87
2023/01/04 07:38:55;;;;;;;;;;;;;;;12.00;43.67;100488.63;4475601;32;33624;-96
2023/01/04 07:41:22;;;;;;;;;;;;;;;11.95;44.08;100489.34;4489588;32;32925;-81
2023/01/04 07:43:52;;;;;;;;;;;;;;;11.94;44.21;100485.88;4468052;32;33723;-85
2023/01/04 07:46:20;;;;;;;;;;;;;;;11.45;45.24;100492.19;4468420;32;32660;-81
2023/01/04 07:48:48;;;;;;;;;;;;;;;11.84;44.66;100486.44;4469788;32;34795;-81
2023/01/04 07:51:15;;;;;;;;;;;;;;;12.05;43.97;100487.06;4464045;32;33360;-80
2023/01/04 07:53:42;;;;;;;;;;;;;;;12.22;43.86;100491.84;4473213;32;34285;-96
2023/01/04 07:56:09;;;;;;;;;;;;;;;12.28;43.71;100492.00;4462828;32;35524;-82
2023/01/04 07:58:44;;;;;;;;;;;;;;;11.64;45.44;100491.03;4459935;32;33597;-86
2023/01/04 08:01:13;;;;;;;;;;;;;;;11.81;45.48;100488.91;4460485;32;33256;-96
2023/01/04 08:03:41;;;;;;;;;;;;;;;11.79;45.67;100501.00;4474521;32;34290;-96
2023/01/04 08:06:09;;;;;;;;;;;;;;;11.95;45.55;100500.63;4448421;32;34043;-82
2023/01/04 08:08:37;;;;;;;;;;;;;;;12.01;45.43;100503.41;4461916;32;33902;-84
2023/01/04 08:11:05;;;;;;;;;;;;;;;11.98;45.67;100502.44;4476904;32;32660;-95
2023/01/04 08:13:32;;;;;;;;;;;;;;;11.90;45.60;100502.22;4483321;32;34178;-85
2023/01/04 08:16:00;;;;;;;;;;;;;;;12.31;44.80;100499.88;4483569;32;35275;-86
2023/01/04 08:18:27;;;;;;;;;;;;;;;12.18;45.11;100483.94;4483603;32;33841;-82
2023/01/04 08:21:02;;;;;;;;;;;;;;;12.15;45.50;100483.84;4483499;32;34179;-82
2023/01/04 08:23:30;;;;;;;;;;;;;;;12.36;45.15;100486.16;4468708;32;34529;-93
2023/01/04 08:26:15;;;;;;;;;;;;;;;12.55;44.63;100484.94;4469194;32;34268;-81
2023/01/04 08:28:43;;;;;;;;;;;;;;;12.77;44.05;100483.75;4483142;32;33753;-82
2023/01/04 08:31:11;;;;;;;;;;;;;;;12.33;45.20;100482.59;4468793;32;33530;-83
2023/01/04 08:33:39;;;;;;;;;;;;;;;11.98;46.31;100477.31;4468416;32;35034;-91
2023/01/04 08:36:11;;;;;;;;;;;;;;;11.95;46.54;100477.22;4468483;32;34001;-85
2023/01/04 08:38:39;;;;;;;;;;;;;;;11.94;46.88;100478.06;4468470;32;33691;-93
2023/01/04 08:41:27;;;;;;;;;;;;;;;11.52;47.79;100483.75;4482645;32;33007;-87
2023/01/04 08:44:14;;;;;;;;;;;;;;;11.98;47.56;100477.31;4438794;32;919601;-94
2023/01/04 08:46:41;;;;;;;;;;;;;;;12.07;47.53;100490.56;4468540;32;35072;-82
2023/01/04 08:49:09;;;;;;;;;;;;;;;11.54;48.58;100491.59;4482424;32;33977;-92
2023/01/04 08:51:36;;;;;;;;;;;;;;;11.65;48.62;100485.00;4482836;32;32996;-86
2023/01/04 08:54:03;;;;;;;;;;;;;;;11.61;48.54;100484.03;4481996;32;34071;-95
2023/01/04 08:56:31;;;;;;;;;;;;;;;11.87;48.34;100486.53;4468018;32;33516;-92
2023/01/04 08:58:58;;;;;;;;;;;;;;;11.94;48.01;100488.47;4482780;32;34082;-92
2023/01/04 09:01:25;;;;;;;;;;;;;;;12.10;47.53;100490.66;4482443;32;33194;-93
2023/01/04 09:03:54;;;;;;;;;;;;;;;11.90;47.99;100492.69;4474931;32;34325;-82
2023/01/04 09:06:21;;;;;;;;;;;;;;;12.36;46.98;100493.09;4482095;32;33997;-81
2023/01/04 09:08:49;;;;;;;;;;;;;;;11.72;48.34;100497.31;4482724;32;34738;-94
2023/01/04 09:11:19;;;;;;;;;;;;;;;11.98;47.73;100490.31;4477652;32;32791;-90
2023/01/04 09:13:46;;;;;;;;;;;;;;;11.90;47.92;100486.62;4478916;32;34976;-95
2023/01/04 09:16:18;;;;;;;;;;;;;;;12.11;47.46;100484.59;4482881;32;34880;-89
2023/01/04 09:18:45;;;;;;;;;;;;;;;11.97;47.74;100488.56;4469017;32;33972;-94
2023/01/04 09:21:14;;;;;;;;;;;;;;;12.12;47.65;100482.88;4468597;32;34221;-83
2023/01/04 09:23:41;;;;;;;;;;;;;;;12.61;46.12;100485.09;4463907;32;34173;-92
2023/01/04 09:26:09;;;;;;;;;;;;;;;12.69;46.09;100486.97;4476644;32;34048;-91
2023/01/04 09:28:37;;;;;;;;;;;;;;;13.06;44.96;100479.22;4467654;32;34277;-93
2023/01/04 09:31:11;;;;;;;;;;;;;;;13.10;44.83;100470.66;4482120;32;34070;-81
2023/01/04 09:33:40;;;;;;;;;;;;;;;13.14;44.98;100474.22;4478531;32;34360;-95
2023/01/04 09:36:27;;;;;;;;;;;;;;;13.10;45.02;100465.44;4470451;32;35327;-95
2023/01/04 09:38:55;;;;;;;;;;;;;;;12.82;46.01;100469.12;4481866;32;33780;-95
2023/01/04 09:41:27;;;;;;;;;;;;;;;13.01;45.70;100470.44;4456635;32;32712;-91
2023/01/04 09:43:55;;;;;;;;;;;;;;;13.12;45.56;100462.91;4466091;32;33731;-94
2023/01/04 09:46:41;;;;;;;;;;;;;;;13.22;45.13;100449.25;4440121;32;34029;-94
2023/01/04 09:49:11;;;;;;;;;;;;;;;13.51;44.78;100452.50;4477511;32;34294;-87
2023/01/04 09:51:40;;;;;;;;;;;;;;;12.91;46.46;100448.50;4483774;32;33725;-83
2023/01/04 09:54:11;;;;;;;;;;;;;;;13.37;45.41;100440.91;4475385;32;34267;-89
2023/01/04 09:56:38;;;;;;;;;;;;;;;13.55;44.82;100438.69;4463544;32;34199;-91
2023/01/04 09:59:06;;;;;;;;;;;;;;;13.12;45.93;100440.34;4486176;32;34830;-96
2023/01/04 10:01:52;;;;;;;;;;;;;;;13.45;45.19;100431.56;4474984;32;34011;-87
2023/01/04 10:04:25;;;;;;;;;;;;;;;13.53;44.94;100445.62;4470674;32;34388;-93
2023/01/04 10:06:53;;;;;;;;;;;;;;;13.26;46.01;100438.09;4470584;32;34172;-95
2023/01/04 10:09:27;;;;;;;;;;;;;;;13.47;45.82;100437.66;4486361;32;34294;-94
2023/01/04 10:11:58;;;;;;;;;;;;;;;12.61;48.57;100430.47;4484434;32;33050;-94
2023/01/04 10:14:42;;;;;;;;;;;;;;;11.85;51.58;100431.91;4471816;32;34788;-95
2023/01/04 10:17:25;;;;;;;;;;;;;;;12.23;50.18;100433.78;4484928;32;34688;-87
2023/01/04 10:20:19;;;;;;;;;;;;;;;12.90;47.94;100425.06;4457042;32;35410;-92
2023/01/04 10:23:24;;;;;;;;;;;;;;;12.24;49.64;100435.56;4474125;32;34166;-95
2023/01/04 10:25:52;;;;;;;;;;;;;;;12.57;48.43;100420.78;4469906;32;34111;-83
2023/01/04 10:28:19;;;;;;;;;;;;;;;12.93;47.82;100421.66;4470458;32;33147;-83
2023/01/04 10:30:49;;;;;;;;;;;;;;;13.30;46.71;100410.37;4471689;32;33774;-84
2023/01/04 10:33:22;;;;;;;;;;;;;;;13.03;47.40;100416.72;4488227;32;34234;-89
2023/01/04 10:35:49;;;;;;;;;;;;;;;13.04;46.92;100418.47;4474001;32;33666;-95
2023/01/04 10:38:17;;;;;;;;;;;;;;;12.31;49.28;100421.84;4466039;32;34209;-93
2023/01/04 10:40:46;;;;;;;;;;;;;;;12.68;48.47;100422.78;4461065;32;33898;-94
2023/01/04 10:43:15;;;;;;;;;;;;;;;12.61;48.28;100416.53;4472520;32;33077;-94
2023/01/04 10:45:45;;;;;;;;;;;;;;;12.97;47.47;100408.75;4477449;32;34541;-84
2023/01/04 10:48:13;;;;;;;;;;;;;;;12.30;49.30;100420.09;4461487;32;35782;-93
2023/01/04 10:50:56;;;;;;;;;;;;;;;12.89;47.83;100405.97;4464648;32;33727;-90
2023/01/04 10:53:47;;;;;;;;;;;;;;;12.04;50.32;100403.81;4470324;32;33046;-93
2023/01/04 10:56:19;;;;;;;;;;;;;;;12.75;48.52;100403.88;4476856;32;35048;-90
2023/01/04 10:59:02;;;;;;;;;;;;;;;13.43;46.52;100391.53;4475322;32;35906;-93
2023/01/04 11:01:29;;;;;;;;;;;;;;;13.06;47.48;100390.72;4476341;32;33477;-82
2023/01/04 11:04:09;;;;;;;;;;;;;;;13.31;47.30;100391.31;4473954;32;33523;-92
2023/01/04 11:06:40;;;;;;;;;;;;;;;13.50;46.43;100375.19;4458562;32;34338;-94
2023/01/04 11:09:10;;;;;;;;;;;;;;;13.89;45.50;100371.59;4468803;32;33930;-82
2023/01/04 11:11:41;;;;;;;;;;;;;;;13.74;45.60;100366.09;4456594;32;33056;-87
2023/01/04 11:14:09;;;;;;;;;;;;;;;13.97;45.44;100354.38;4469462;32;33171;-89
2023/01/04 11:16:37;;;;;;;;;;;;;;;13.96;45.25;100357.84;4469421;32;34246;-85
2023/01/04 11:19:04;;;;;;;;;;;;;;;13.68;46.10;100359.06;4466982;32;34503;-91
2023/01/04 11:21:33;;;;;;;;;;;;;;;13.53;46.36;100346.59;4460820;32;32297;-88
2023/01/04 11:24:00;;;;;;;;;;;;;;;13.73;45.87;100340.91;4439240;32;33997;-87
2023/01/04 11:26:48;;;;;;;;;;;;;;;13.68;45.90;100339.94;4449844;32;34389;-82
2023/01/04 11:29:27;;;;;;;;;;;;;;;14.10;44.74;100327.66;4462513;32;34386;-94
2023/01/04 11:32:07;;;;;;;;;;;;;;;13.96;45.24;100328.28;4468305;32;34037;-92
2023/01/04 11:34:44;;;;;;;;;;;;;;;14.08;44.97;100321.53;4453993;32;33296;-93
2023/01/04 11:37:22;;;;;;;;;;;;;;;14.02;44.79;100311.03;4480354;32;34337;-89
2023/01/04 11:39:49;;;;;;;;;;;;;;;14.22;44.62;100319.16;4482780;32;34406;-92
2023/01/04 11:42:20;;;;;;;;;;;;;;;14.39;44.26;100311.59;4469320;32;34801;-92
2023/01/04 11:44:57;;;;;;;;;;;;;;;14.23;44.54;100317.44;4469024;32;34105;-87
2023/01/04 11:47:27;;;;;;;;;;;;;;;14.62;42.92;100311.09;4459804;32;34419;-91
2023/01/04 11:49:59;;;;;;;;;;;;;;;14.42;43.57;100310.78;4476923;32;34390;-83
2023/01/04 11:52:27;;;;;;;;;;;;;;;14.39;43.52;100306.38;4483172;32;34071;-94
2023/01/04 11:54:54;;;;;;;;;;;;;;;14.70;42.67;100299.03;4469071;32;33472;-92
2023/01/04 11:57:22;;;;;;;;;;;;;;;14.55;42.14;100291.91;4482930;32;35150;-88
2023/01/04 12:00:28;;;;;;;;;;;;;;;14.47;43.08;100294.34;4468893;32;33719;-95
2023/01/04 12:03:09;;;;;;;;;;;;;;;14.55;42.28;100302.34;4418872;32;33902;-83
2023/01/04 12:05:36;;;;;;;;;;;;;;;14.41;43.02;100290.78;4406537;32;33401;-86
2023/01/04 12:08:04;;;;;;;;;;;;;;;14.45;42.59;100289.97;4443898;32;33919;-81
2023/01/04 12:10:31;;;;;;;;;;;;;;;14.69;41.85;100279.03;4459780;32;34598;-84
2023/01/04 12:12:58;;;;;;;;;;;;;;;14.36;43.45;100288.09;4466387;32;34666;-83
2023/01/04 12:15:28;;;;;;;;;;;;;;;14.52;42.72;100295.31;4465202;32;33508;-91
2023/01/04 12:17:56;;;;;;;;;;;;;;;13.96;44.16;100295.25;4468816;32;33977;-88
2023/01/04 12:20:24;;;;;;;;;;;;;;;14.22;42.20;100282.66;4454772;32;33640;-83
2023/01/04 12:22:51;;;;;;;;;;;;;;;12.96;41.98;100282.06;4469554;32;34645;-95
2023/01/04 12:25:27;;;;;;;;;;;;;;;13.39;40.63;100283.81;4469603;32;32066;-85
2023/01/04 12:27:54;;;;;;;;;;;;;;;14.38;38.22;100278.53;4468709;32;34312;-92
2023/01/04 12:30:32;;;;;;;;;;;;;;;13.41;39.96;100267.31;4481023;32;34393;-83
2023/01/04 12:33:05;;;;;;;;;;;;;;;13.84;40.67;100264.66;4476335;32;33343;-95
2023/01/04 12:35:51;;;;;;;;;;;;;;;14.71;38.29;100253.84;4455950;32;33345;-93
2023/01/04 12:38:23;;;;;;;;;;;;;;;13.84;39.69;100264.66;4475089;32;34367;-93
2023/01/04 12:40:51;;;;;;;;;;;;;;;13.76;41.20;100261.03;4461346;32;34259;-90
2023/01/04 12:43:23;;;;;;;;;;;;;;;14.88;36.95;100249.69;4466951;32;34631;-82
2023/01/04 12:49:02;;;;;;;;;;;;;;;14.57;38.91;100251.03;4475917;32;33015;-93
2023/01/04 12:49:04;;;;;;;;;;;;;;;14.45;38.88;100248.22;4467136;32;33394;-93
2023/01/04 12:51:31;;;;;;;;;;;;;;;14.29;41.24;100237.56;4461468;32;32982;-86
2023/01/04 12:54:01;;;;;;;;;;;;;;;13.74;42.51;100241.00;4452894;32;34123;-94
2023/01/04 12:56:47;;;;;;;;;;;;;;;14.03;42.99;100231.94;4460675;32;33041;-81
2023/01/04 12:59:15;;;;;;;;;;;;;;;14.20;43.39;100236.53;4479721;32;34330;-94
2023/01/04 13:02:14;;;;;;;;;;;;;;;14.06;44.18;100229.38;4473837;32;35123;-96
2023/01/04 13:04:47;;;;;;;;;;;;;;;14.17;44.19;100240.00;4489134;32;34237;-96
2023/01/04 13:07:20;;;;;;;;;;;;;;;13.95;45.05;100237.91;4473960;32;34287;-96
2023/01/04 13:09:51;;;;;;;;;;;;;;;13.86;45.78;100236.00;4487799;32;34994;-82
2023/01/04 13:12:28;;;;;;;;;;;;;;;14.39;45.26;100225.50;4471834;32;34469;-83
2023/01/04 13:15:19;;;;;;;;;;;;;;;14.15;46.09;100236.47;4470566;32;34086;-82
2023/01/04 13:17:46;;;;;;;;;;;;;;;14.16;46.21;100235.59;4441842;32;33229;-81
2023/01/04 13:20:19;;;;;;;;;;;;;;;14.06;46.91;100238.94;4455203;32;34311;-91
2023/01/04 13:22:51;;;;;;;;;;;;;;;14.30;46.16;100235.81;4463855;32;35277;-92
2023/01/04 13:25:20;;;;;;;;;;;;;;;14.24;46.61;100235.72;4442977;32;33397;-81
2023/01/04 13:28:13;;;;;;;;;;;;;;;14.63;45.87;100231.97;4454214;32;33033;-88
2023/01/04 13:30:44;;;;;;;;;;;;;;;14.42;46.41;100222.06;4453583;32;33173;-81
2023/01/04 13:33:18;;;;;;;;;;;;;;;14.01;47.90;100224.94;4469715;32;34483;-89
2023/01/04 13:35:59;;;;;;;;;;;;;;;14.03;48.17;100224.13;4459459;32;33782;-81
2023/01/04 13:38:26;;;;;;;;;;;;;;;14.48;47.44;100220.44;4470626;32;33359;-83
2023/01/04 13:40:53;;;;;;;;;;;;;;;14.63;47.14;100226.75;4484545;32;34027;-87
2023/01/04 13:43:41;;;;;;;;;;;;;;;14.56;46.64;100216.22;4477700;32;34865;-96
2023/01/04 13:46:18;;;;;;;;;;;;;;;14.80;46.24;100209.56;4470832;32;34730;-90